sensor_id;sensor_type;location;lat;lon;timestamp;temperature;humidity
13346;DHT22;6742;48.036;15.780;2023-11-21T00:01:11;5.60;99.90
13346;DHT22;6742;48.036;15.780;2023-11-21T00:03:38;5.60;99.90
13346;DHT22;6742;48.036;15.780;2023-11-21T00:06:06;5.50;99.90
13346;DHT22;6742;48.036;15.780;2023-11-21T00:08:34;5.50;99.90
13346;DHT22;6742;48.036;15.780;2023-11-21T00:11:03;5.50;99.90
13346;DHT22;6742;48.036;15.780;2023-11-21T00:13:31;5.50;99.90
13346;DHT22;6742;48.036;15.780;2023-11-21T00:15:58;5.50;99.90
13346;DHT22;6742;48.036;15.780;2023-11-21T00:18:25;5.50;99.90
13346;DHT22;6742;48.036;15.780;2023-11-21T00:20:52;5.50;99.90
13346;DHT22;6742;48.036;15.780;2023-11-21T00:23:19;5.50;99.90
13346;DHT22;6742;48.036;15.780;2023-11-21T00:25:46;5.50;99.90
13346;DHT22;6742;48.036;15.780;2023-11-21T00:28:14;5.40;99.90
13346;DHT22;6742;48.036;15.780;2023-11-21T00:30:41;5.40;99.90
13346;DHT22;6742;48.036;15.780;2023-11-21T00:33:08;5.40;99.90
13346;DHT22;6742;48.036;15.780;2023-11-21T00:35:35;5.30;99.90
13346;DHT22;6742;48.036;15.780;2023-11-21T00:38:02;5.30;99.90
13346;DHT22;6742;48.036;15.780;2023-11-21T00:40:29;5.30;99.90
13346;DHT22;6742;48.036;15.780;2023-11-21T00:42:56;5.30;99.90
13346;DHT22;6742;48.036;15.780;2023-11-21T00:45:25;5.20;99.90
13346;DHT22;6742;48.036;15.780;2023-11-21T00:47:52;5.30;99.90
13346;DHT22;6742;48.036;15.780;2023-11-21T00:50:19;5.30;99.90
13346;DHT22;6742;48.036;15.780;2023-11-21T00:52:46;5.20;99.90
13346;DHT22;6742;48.036;15.780;2023-11-21T00:55:13;5.20;99.90
13346;DHT22;6742;48.036;15.780;2023-11-21T00:57:40;5.20;99.90
13346;DHT22;6742;48.036;15.780;2023-11-21T01:00:07;5.10;99.90
13346;DHT22;6742;48.036;15.780;2023-11-21T01:02:40;5.10;99.90
13346;DHT22;6742;48.036;15.780;2023-11-21T01:05:08;5.10;99.90
13346;DHT22;6742;48.036;15.780;2023-11-21T01:07:36;5.10;99.90
13346;DHT22;6742;48.036;15.780;2023-11-21T01:10:03;5.10;99.90
13346;DHT22;6742;48.036;15.780;2023-11-21T01:12:33;5.00;99.90
13346;DHT22;6742;48.036;15.780;2023-11-21T01:15:01;5.00;99.90
13346;DHT22;6742;48.036;15.780;2023-11-21T01:17:27;5.10;99.90
13346;DHT22;6742;48.036;15.780;2023-11-21T01:19:56;5.10;99.90
13346;DHT22;6742;48.036;15.780;2023-11-21T01:22:23;5.10;99.90
13346;DHT22;6742;48.036;15.780;2023-11-21T01:24:51;5.10;99.90
13346;DHT22;6742;48.036;15.780;2023-11-21T01:27:19;5.10;99.90
13346;DHT22;6742;48.036;15.780;2023-11-21T01:29:46;5.10;99.90
13346;DHT22;6742;48.036;15.780;2023-11-21T01:32:13;5.00;99.90
13346;DHT22;6742;48.036;15.780;2023-11-21T01:34:40;5.00;99.90
13346;DHT22;6742;48.036;15.780;2023-11-21T01:37:08;4.90;99.90
13346;DHT22;6742;48.036;15.780;2023-11-21T01:39:37;4.80;99.90
13346;DHT22;6742;48.036;15.780;2023-11-21T01:42:05;4.90;99.90
13346;DHT22;6742;48.036;15.780;2023-11-21T01:44:33;4.80;99.90
13346;DHT22;6742;48.036;15.780;2023-11-21T01:47:00;4.90;99.90
13346;DHT22;6742;48.036;15.780;2023-11-21T01:49:30;4.90;99.90
13346;DHT22;6742;48.036;15.780;2023-11-21T01:51:58;4.80;99.90
13346;DHT22;6742;48.036;15.780;2023-11-21T01:54:27;4.80;99.90
13346;DHT22;6742;48.036;15.780;2023-11-21T01:56:57;4.80;99.90
13346;DHT22;6742;48.036;15.780;2023-11-21T01:59:35;4.80;99.90
13346;DHT22;6742;48.036;15.780;2023-11-21T02:02:03;4.80;99.90
13346;DHT22;6742;48.036;15.780;2023-11-21T02:04:30;4.70;99.90
13346;DHT22;6742;48.036;15.780;2023-11-21T02:06:58;4.60;99.90
13346;DHT22;6742;48.036;15.780;2023-11-21T02:09:27;4.60;99.90
13346;DHT22;6742;48.036;15.780;2023-11-21T02:11:55;4.50;99.90
13346;DHT22;6742;48.036;15.780;2023-11-21T02:14:27;4.60;99.90
13346;DHT22;6742;48.036;15.780;2023-11-21T02:16:54;4.60;99.90
13346;DHT22;6742;48.036;15.780;2023-11-21T02:19:23;4.50;99.90
13346;DHT22;6742;48.036;15.780;2023-11-21T02:21:51;4.50;99.90
13346;DHT22;6742;48.036;15.780;2023-11-21T02:24:21;4.50;99.90
13346;DHT22;6742;48.036;15.780;2023-11-21T02:26:48;4.50;99.90
13346;DHT22;6742;48.036;15.780;2023-11-21T02:29:16;4.60;99.90
13346;DHT22;6742;48.036;15.780;2023-11-21T02:31:47;4.60;99.90
13346;DHT22;6742;48.036;15.780;2023-11-21T02:34:15;4.60;99.90
13346;DHT22;6742;48.036;15.780;2023-11-21T02:36:42;4.60;99.90
13346;DHT22;6742;48.036;15.780;2023-11-21T02:39:09;4.60;99.90
13346;DHT22;6742;48.036;15.780;2023-11-21T02:41:38;4.60;99.90
13346;DHT22;6742;48.036;15.780;2023-11-21T02:44:06;4.60;99.90
13346;DHT22;6742;48.036;15.780;2023-11-21T02:46:33;4.50;99.90
13346;DHT22;6742;48.036;15.780;2023-11-21T02:49:00;4.50;99.90
13346;DHT22;6742;48.036;15.780;2023-11-21T02:51:27;4.40;99.90
13346;DHT22;6742;48.036;15.780;2023-11-21T02:53:55;4.40;99.90
13346;DHT22;6742;48.036;15.780;2023-11-21T02:56:24;4.40;99.90
13346;DHT22;6742;48.036;15.780;2023-11-21T02:58:55;4.40;99.90
13346;DHT22;6742;48.036;15.780;2023-11-21T03:01:23;4.30;99.90
13346;DHT22;6742;48.036;15.780;2023-11-21T03:03:50;4.30;99.90
13346;DHT22;6742;48.036;15.780;2023-11-21T03:06:18;4.30;99.90
13346;DHT22;6742;48.036;15.780;2023-11-21T03:08:45;4.20;99.90
13346;DHT22;6742;48.036;15.780;2023-11-21T03:11:12;4.20;99.90
13346;DHT22;6742;48.036;15.780;2023-11-21T03:13:39;4.20;99.90
13346;DHT22;6742;48.036;15.780;2023-11-21T03:16:08;4.10;99.90
13346;DHT22;6742;48.036;15.780;2023-11-21T03:18:36;4.10;99.90
13346;DHT22;6742;48.036;15.780;2023-11-21T03:21:03;4.10;99.90
13346;DHT22;6742;48.036;15.780;2023-11-21T03:23:31;4.20;99.90
13346;DHT22;6742;48.036;15.780;2023-11-21T03:25:57;4.20;99.90
13346;DHT22;6742;48.036;15.780;2023-11-21T03:28:25;4.20;99.90
13346;DHT22;6742;48.036;15.780;2023-11-21T03:30:52;4.20;99.90
13346;DHT22;6742;48.036;15.780;2023-11-21T03:33:20;4.20;99.90
13346;DHT22;6742;48.036;15.780;2023-11-21T03:35:47;4.20;99.90
13346;DHT22;6742;48.036;15.780;2023-11-21T03:38:15;4.20;99.90
13346;DHT22;6742;48.036;15.780;2023-11-21T03:40:42;4.10;99.90
13346;DHT22;6742;48.036;15.780;2023-11-21T03:43:09;4.00;99.90
13346;DHT22;6742;48.036;15.780;2023-11-21T03:45:36;4.00;99.90
13346;DHT22;6742;48.036;15.780;2023-11-21T03:48:03;4.00;99.90
13346;DHT22;6742;48.036;15.780;2023-11-21T03:50:31;4.00;99.90
13346;DHT22;6742;48.036;15.780;2023-11-21T03:52:58;3.90;99.90
13346;DHT22;6742;48.036;15.780;2023-11-21T03:55:25;3.90;99.90
13346;DHT22;6742;48.036;15.780;2023-11-21T03:57:52;3.90;99.90
13346;DHT22;6742;48.036;15.780;2023-11-21T04:00:19;3.80;99.90
13346;DHT22;6742;48.036;15.780;2023-11-21T04:02:46;3.80;99.90
13346;DHT22;6742;48.036;15.780;2023-11-21T04:05:16;3.80;99.90
13346;DHT22;6742;48.036;15.780;2023-11-21T04:07:44;3.80;99.90
13346;DHT22;6742;48.036;15.780;2023-11-21T04:10:11;3.80;99.90
13346;DHT22;6742;48.036;15.780;2023-11-21T04:12:39;3.80;99.90
13346;DHT22;6742;48.036;15.780;2023-11-21T04:15:05;3.70;99.90
13346;DHT22;6742;48.036;15.780;2023-11-21T04:17:34;3.70;99.90
13346;DHT22;6742;48.036;15.780;2023-11-21T04:20:02;3.70;99.90
13346;DHT22;6742;48.036;15.780;2023-11-21T04:22:29;3.60;99.90
13346;DHT22;6742;48.036;15.780;2023-11-21T04:24:57;3.60;99.90
13346;DHT22;6742;48.036;15.780;2023-11-21T04:27:24;3.60;99.90
13346;DHT22;6742;48.036;15.780;2023-11-21T04:29:51;3.70;99.90
13346;DHT22;6742;48.036;15.780;2023-11-21T04:32:18;3.70;99.90
13346;DHT22;6742;48.036;15.780;2023-11-21T04:34:45;3.70;99.90
13346;DHT22;6742;48.036;15.780;2023-11-21T04:37:12;3.60;99.90
13346;DHT22;6742;48.036;15.780;2023-11-21T04:39:39;3.60;99.90
13346;DHT22;6742;48.036;15.780;2023-11-21T04:42:07;3.60;99.90
13346;DHT22;6742;48.036;15.780;2023-11-21T04:44:34;3.60;99.90
13346;DHT22;6742;48.036;15.780;2023-11-21T04:47:01;3.60;99.90
13346;DHT22;6742;48.036;15.780;2023-11-21T04:49:30;3.60;99.90
13346;DHT22;6742;48.036;15.780;2023-11-21T04:51:57;3.60;99.90
13346;DHT22;6742;48.036;15.780;2023-11-21T04:54:24;3.50;99.90
13346;DHT22;6742;48.036;15.780;2023-11-21T04:56:50;3.50;99.90
13346;DHT22;6742;48.036;15.780;2023-11-21T04:59:19;3.40;99.90
13346;DHT22;6742;48.036;15.780;2023-11-21T05:01:46;3.50;99.90
13346;DHT22;6742;48.036;15.780;2023-11-21T05:04:13;3.50;99.90
13346;DHT22;6742;48.036;15.780;2023-11-21T05:06:40;3.50;99.90
13346;DHT22;6742;48.036;15.780;2023-11-21T05:09:07;3.50;99.90
13346;DHT22;6742;48.036;15.780;2023-11-21T05:11:37;3.60;99.90
13346;DHT22;6742;48.036;15.780;2023-11-21T05:14:04;3.60;99.90
13346;DHT22;6742;48.036;15.780;2023-11-21T05:16:34;3.60;99.90
13346;DHT22;6742;48.036;15.780;2023-11-21T05:19:01;3.60;99.90
13346;DHT22;6742;48.036;15.780;2023-11-21T05:21:29;3.60;99.90
13346;DHT22;6742;48.036;15.780;2023-11-21T05:23:57;3.60;99.90
13346;DHT22;6742;48.036;15.780;2023-11-21T05:26:24;3.60;99.90
13346;DHT22;6742;48.036;15.780;2023-11-21T05:28:51;3.50;99.90
13346;DHT22;6742;48.036;15.780;2023-11-21T05:31:17;3.50;99.90
13346;DHT22;6742;48.036;15.780;2023-11-21T05:33:46;3.50;99.90
13346;DHT22;6742;48.036;15.780;2023-11-21T05:36:13;3.50;99.90
13346;DHT22;6742;48.036;15.780;2023-11-21T05:38:40;3.40;99.90
13346;DHT22;6742;48.036;15.780;2023-11-21T05:41:07;3.40;99.90
13346;DHT22;6742;48.036;15.780;2023-11-21T05:43:36;3.40;99.90
13346;DHT22;6742;48.036;15.780;2023-11-21T05:46:03;3.40;99.90
13346;DHT22;6742;48.036;15.780;2023-11-21T05:48:31;3.40;99.90
13346;DHT22;6742;48.036;15.780;2023-11-21T05:50:59;3.40;99.90
13346;DHT22;6742;48.036;15.780;2023-11-21T05:53:27;3.40;99.90
13346;DHT22;6742;48.036;15.780;2023-11-21T05:55:54;3.40;99.90
13346;DHT22;6742;48.036;15.780;2023-11-21T05:58:21;3.40;99.90
13346;DHT22;6742;48.036;15.780;2023-11-21T06:00:48;3.50;99.90
13346;DHT22;6742;48.036;15.780;2023-11-21T06:03:15;3.50;99.90
13346;DHT22;6742;48.036;15.780;2023-11-21T06:05:42;3.40;99.90
13346;DHT22;6742;48.036;15.780;2023-11-21T06:08:11;3.40;99.90
13346;DHT22;6742;48.036;15.780;2023-11-21T06:10:38;3.40;99.90
13346;DHT22;6742;48.036;15.780;2023-11-21T06:13:05;3.30;99.90
13346;DHT22;6742;48.036;15.780;2023-11-21T06:15:32;3.30;99.90
13346;DHT22;6742;48.036;15.780;2023-11-21T06:18:00;3.30;99.90
13346;DHT22;6742;48.036;15.780;2023-11-21T06:20:27;3.30;99.90
13346;DHT22;6742;48.036;15.780;2023-11-21T06:22:54;3.30;99.90
13346;DHT22;6742;48.036;15.780;2023-11-21T06:25:22;3.20;99.90
13346;DHT22;6742;48.036;15.780;2023-11-21T06:27:50;3.20;99.90
13346;DHT22;6742;48.036;15.780;2023-11-21T06:30:19;3.20;99.90
13346;DHT22;6742;48.036;15.780;2023-11-21T06:32:47;3.20;99.90
13346;DHT22;6742;48.036;15.780;2023-11-21T06:35:15;3.20;99.90
13346;DHT22;6742;48.036;15.780;2023-11-21T06:37:42;3.30;99.90
13346;DHT22;6742;48.036;15.780;2023-11-21T06:40:13;3.30;99.90
13346;DHT22;6742;48.036;15.780;2023-11-21T06:42:42;3.30;99.90
13346;DHT22;6742;48.036;15.780;2023-11-21T06:45:10;3.30;99.90
13346;DHT22;6742;48.036;15.780;2023-11-21T06:47:37;3.30;99.90
13346;DHT22;6742;48.036;15.780;2023-11-21T06:50:05;3.30;99.90
13346;DHT22;6742;48.036;15.780;2023-11-21T06:52:32;3.40;99.90
13346;DHT22;6742;48.036;15.780;2023-11-21T06:54:59;3.40;99.90
13346;DHT22;6742;48.036;15.780;2023-11-21T06:57:26;3.40;99.90
13346;DHT22;6742;48.036;15.780;2023-11-21T06:59:54;3.40;99.90
13346;DHT22;6742;48.036;15.780;2023-11-21T07:02:22;3.50;99.90
13346;DHT22;6742;48.036;15.780;2023-11-21T07:04:49;3.50;99.90
13346;DHT22;6742;48.036;15.780;2023-11-21T07:07:17;3.50;99.90
13346;DHT22;6742;48.036;15.780;2023-11-21T07:09:44;3.50;99.90
13346;DHT22;6742;48.036;15.780;2023-11-21T07:12:11;3.50;99.90
13346;DHT22;6742;48.036;15.780;2023-11-21T07:14:39;3.50;99.90
13346;DHT22;6742;48.036;15.780;2023-11-21T07:17:10;3.50;99.90
13346;DHT22;6742;48.036;15.780;2023-11-21T07:19:37;3.50;99.90
13346;DHT22;6742;48.036;15.780;2023-11-21T07:22:05;3.50;99.90
13346;DHT22;6742;48.036;15.780;2023-11-21T07:24:32;3.50;99.90
13346;DHT22;6742;48.036;15.780;2023-11-21T07:26:59;3.60;99.90
13346;DHT22;6742;48.036;15.780;2023-11-21T07:29:26;3.60;99.90
13346;DHT22;6742;48.036;15.780;2023-11-21T07:31:55;3.70;99.90
13346;DHT22;6742;48.036;15.780;2023-11-21T07:34:23;3.70;99.90
13346;DHT22;6742;48.036;15.780;2023-11-21T07:36:50;3.80;99.90
13346;DHT22;6742;48.036;15.780;2023-11-21T07:39:17;3.90;99.90
13346;DHT22;6742;48.036;15.780;2023-11-21T07:41:44;4.00;99.90
13346;DHT22;6742;48.036;15.780;2023-11-21T07:44:14;4.20;99.90
13346;DHT22;6742;48.036;15.780;2023-11-21T07:46:41;4.30;99.90
13346;DHT22;6742;48.036;15.780;2023-11-21T07:49:08;4.40;99.90
13346;DHT22;6742;48.036;15.780;2023-11-21T07:51:36;4.50;99.90
13346;DHT22;6742;48.036;15.780;2023-11-21T07:54:04;4.50;99.90
13346;DHT22;6742;48.036;15.780;2023-11-21T07:56:31;4.40;99.90
13346;DHT22;6742;48.036;15.780;2023-11-21T07:58:58;4.50;99.90
13346;DHT22;6742;48.036;15.780;2023-11-21T08:01:25;4.40;99.90
13346;DHT22;6742;48.036;15.780;2023-11-21T08:03:53;4.40;99.90
13346;DHT22;6742;48.036;15.780;2023-11-21T08:06:22;4.50;99.90
13346;DHT22;6742;48.036;15.780;2023-11-21T08:08:51;4.50;99.90
13346;DHT22;6742;48.036;15.780;2023-11-21T08:11:18;4.60;99.90
13346;DHT22;6742;48.036;15.780;2023-11-21T08:13:47;4.60;99.90
13346;DHT22;6742;48.036;15.780;2023-11-21T08:16:14;4.60;99.90
13346;DHT22;6742;48.036;15.780;2023-11-21T08:18:42;4.60;99.90
13346;DHT22;6742;48.036;15.780;2023-11-21T08:21:09;4.60;99.90
13346;DHT22;6742;48.036;15.780;2023-11-21T08:23:37;4.60;99.90
13346;DHT22;6742;48.036;15.780;2023-11-21T08:26:06;4.70;99.90
13346;DHT22;6742;48.036;15.780;2023-11-21T08:28:34;4.80;99.90
13346;DHT22;6742;48.036;15.780;2023-11-21T08:31:01;4.90;99.90
13346;DHT22;6742;48.036;15.780;2023-11-21T08:33:28;4.90;99.90
13346;DHT22;6742;48.036;15.780;2023-11-21T08:35:55;4.90;99.90
13346;DHT22;6742;48.036;15.780;2023-11-21T08:38:22;4.90;99.90
13346;DHT22;6742;48.036;15.780;2023-11-21T08:40:49;4.90;99.90
13346;DHT22;6742;48.036;15.780;2023-11-21T08:43:17;5.00;99.90
13346;DHT22;6742;48.036;15.780;2023-11-21T08:45:45;5.00;99.90
13346;DHT22;6742;48.036;15.780;2023-11-21T08:48:12;4.90;99.90
13346;DHT22;6742;48.036;15.780;2023-11-21T08:50:39;5.00;99.90
13346;DHT22;6742;48.036;15.780;2023-11-21T08:53:06;5.00;99.90
13346;DHT22;6742;48.036;15.780;2023-11-21T08:55:33;5.00;99.90
13346;DHT22;6742;48.036;15.780;2023-11-21T08:58:02;5.10;99.90
13346;DHT22;6742;48.036;15.780;2023-11-21T09:00:32;5.10;99.90
13346;DHT22;6742;48.036;15.780;2023-11-21T09:02:59;5.10;99.90
13346;DHT22;6742;48.036;15.780;2023-11-21T09:05:27;5.20;99.90
13346;DHT22;6742;48.036;15.780;2023-11-21T09:07:54;5.20;99.90
13346;DHT22;6742;48.036;15.780;2023-11-21T09:10:21;5.30;99.90
13346;DHT22;6742;48.036;15.780;2023-11-21T09:12:49;5.30;99.90
13346;DHT22;6742;48.036;15.780;2023-11-21T09:15:17;5.30;99.90
13346;DHT22;6742;48.036;15.780;2023-11-21T09:17:47;5.40;99.90
13346;DHT22;6742;48.036;15.780;2023-11-21T09:20:14;5.40;99.90
13346;DHT22;6742;48.036;15.780;2023-11-21T09:22:41;5.40;99.90
13346;DHT22;6742;48.036;15.780;2023-11-21T09:25:10;5.50;99.90
13346;DHT22;6742;48.036;15.780;2023-11-21T09:27:38;5.40;99.90
13346;DHT22;6742;48.036;15.780;2023-11-21T09:30:06;5.50;99.90
13346;DHT22;6742;48.036;15.780;2023-11-21T09:32:35;5.50;99.90
13346;DHT22;6742;48.036;15.780;2023-11-21T09:35:05;5.50;99.90
13346;DHT22;6742;48.036;15.780;2023-11-21T09:37:33;5.50;99.90
13346;DHT22;6742;48.036;15.780;2023-11-21T09:40:01;5.60;99.90
13346;DHT22;6742;48.036;15.780;2023-11-21T09:42:32;5.70;99.90
13346;DHT22;6742;48.036;15.780;2023-11-21T09:45:05;5.70;99.90
13346;DHT22;6742;48.036;15.780;2023-11-21T09:47:35;5.80;99.90
13346;DHT22;6742;48.036;15.780;2023-11-21T09:50:06;5.90;99.90
13346;DHT22;6742;48.036;15.780;2023-11-21T09:52:41;5.90;99.90
13346;DHT22;6742;48.036;15.780;2023-11-21T09:55:14;5.90;99.90
13346;DHT22;6742;48.036;15.780;2023-11-21T09:57:45;6.00;99.90
13346;DHT22;6742;48.036;15.780;2023-11-21T10:00:14;6.10;99.90
13346;DHT22;6742;48.036;15.780;2023-11-21T10:02:43;6.20;99.90
13346;DHT22;6742;48.036;15.780;2023-11-21T10:05:13;6.30;99.90
13346;DHT22;6742;48.036;15.780;2023-11-21T10:07:42;6.40;99.90
13346;DHT22;6742;48.036;15.780;2023-11-21T10:10:10;6.50;99.90
13346;DHT22;6742;48.036;15.780;2023-11-21T10:12:38;6.60;99.90
13346;DHT22;6742;48.036;15.780;2023-11-21T10:15:08;6.80;99.90
13346;DHT22;6742;48.036;15.780;2023-11-21T10:17:38;6.80;99.90
13346;DHT22;6742;48.036;15.780;2023-11-21T10:20:10;6.90;99.90
13346;DHT22;6742;48.036;15.780;2023-11-21T10:22:41;6.90;99.90
13346;DHT22;6742;48.036;15.780;2023-11-21T10:25:09;7.00;99.90
13346;DHT22;6742;48.036;15.780;2023-11-21T10:27:37;7.00;99.90
13346;DHT22;6742;48.036;15.780;2023-11-21T10:30:05;7.00;99.90
13346;DHT22;6742;48.036;15.780;2023-11-21T10:32:33;7.10;99.90
13346;DHT22;6742;48.036;15.780;2023-11-21T10:35:00;7.20;99.90
13346;DHT22;6742;48.036;15.780;2023-11-21T10:37:32;7.20;99.90
13346;DHT22;6742;48.036;15.780;2023-11-21T10:40:00;7.20;99.90
13346;DHT22;6742;48.036;15.780;2023-11-21T10:42:27;7.30;99.90
13346;DHT22;6742;48.036;15.780;2023-11-21T10:44:55;7.30;99.90
13346;DHT22;6742;48.036;15.780;2023-11-21T10:47:22;7.30;99.90
13346;DHT22;6742;48.036;15.780;2023-11-21T10:49:49;7.30;99.90
13346;DHT22;6742;48.036;15.780;2023-11-21T10:52:19;7.30;99.90
13346;DHT22;6742;48.036;15.780;2023-11-21T10:54:46;7.30;99.90
13346;DHT22;6742;48.036;15.780;2023-11-21T10:57:18;7.20;99.90
13346;DHT22;6742;48.036;15.780;2023-11-21T10:59:47;7.20;99.90
13346;DHT22;6742;48.036;15.780;2023-11-21T11:02:21;7.20;99.90
13346;DHT22;6742;48.036;15.780;2023-11-21T11:04:52;7.20;99.90
13346;DHT22;6742;48.036;15.780;2023-11-21T11:07:22;7.20;99.90
13346;DHT22;6742;48.036;15.780;2023-11-21T11:09:53;7.10;99.90
13346;DHT22;6742;48.036;15.780;2023-11-21T11:12:22;7.10;99.90
13346;DHT22;6742;48.036;15.780;2023-11-21T11:14:49;7.00;99.90
13346;DHT22;6742;48.036;15.780;2023-11-21T11:17:16;7.00;99.90
13346;DHT22;6742;48.036;15.780;2023-11-21T11:19:46;7.00;99.90
13346;DHT22;6742;48.036;15.780;2023-11-21T11:22:24;7.00;99.90
13346;DHT22;6742;48.036;15.780;2023-11-21T11:25:10;7.00;99.90
13346;DHT22;6742;48.036;15.780;2023-11-21T11:27:57;7.10;99.90
13346;DHT22;6742;48.036;15.780;2023-11-21T11:30:40;7.10;99.90
13346;DHT22;6742;48.036;15.780;2023-11-21T11:33:24;7.20;99.90
13346;DHT22;6742;48.036;15.780;2023-11-21T11:35:57;7.40;99.90
13346;DHT22;6742;48.036;15.780;2023-11-21T11:38:31;7.50;99.90
13346;DHT22;6742;48.036;15.780;2023-11-21T11:41:01;7.50;99.90
13346;DHT22;6742;48.036;15.780;2023-11-21T11:43:31;7.50;99.90
13346;DHT22;6742;48.036;15.780;2023-11-21T11:46:05;7.50;99.90
13346;DHT22;6742;48.036;15.780;2023-11-21T11:48:37;7.50;99.90
13346;DHT22;6742;48.036;15.780;2023-11-21T11:51:06;7.50;99.90
13346;DHT22;6742;48.036;15.780;2023-11-21T11:53:40;7.50;99.90
13346;DHT22;6742;48.036;15.780;2023-11-21T11:56:23;7.50;99.90
13346;DHT22;6742;48.036;15.780;2023-11-21T11:58:53;7.60;99.90
13346;DHT22;6742;48.036;15.780;2023-11-21T12:01:21;7.60;99.90
13346;DHT22;6742;48.036;15.780;2023-11-21T12:06:51;7.80;99.90
13346;DHT22;6742;48.036;15.780;2023-11-21T12:09:19;7.80;99.90
13346;DHT22;6742;48.036;15.780;2023-11-21T12:11:47;7.90;99.90
13346;DHT22;6742;48.036;15.780;2023-11-21T12:14:16;7.90;99.90
13346;DHT22;6742;48.036;15.780;2023-11-21T12:16:43;7.90;99.90
13346;DHT22;6742;48.036;15.780;2023-11-21T12:19:11;8.00;99.90
13346;DHT22;6742;48.036;15.780;2023-11-21T12:21:38;7.90;99.90
13346;DHT22;6742;48.036;15.780;2023-11-21T12:24:07;7.80;99.90
13346;DHT22;6742;48.036;15.780;2023-11-21T12:26:34;7.70;99.90
13346;DHT22;6742;48.036;15.780;2023-11-21T12:29:01;7.70;99.90
13346;DHT22;6742;48.036;15.780;2023-11-21T12:31:31;7.70;99.90
13346;DHT22;6742;48.036;15.780;2023-11-21T12:33:58;7.80;99.90
13346;DHT22;6742;48.036;15.780;2023-11-21T12:36:26;7.70;99.90
13346;DHT22;6742;48.036;15.780;2023-11-21T12:38:54;7.70;99.90
13346;DHT22;6742;48.036;15.780;2023-11-21T12:41:21;7.70;99.90
13346;DHT22;6742;48.036;15.780;2023-11-21T12:43:48;7.70;99.90
13346;DHT22;6742;48.036;15.780;2023-11-21T12:46:15;7.70;99.90
13346;DHT22;6742;48.036;15.780;2023-11-21T12:48:45;7.70;99.90
13346;DHT22;6742;48.036;15.780;2023-11-21T12:51:12;7.70;99.90
13346;DHT22;6742;48.036;15.780;2023-11-21T12:53:42;7.70;99.90
13346;DHT22;6742;48.036;15.780;2023-11-21T12:56:10;7.70;99.90
13346;DHT22;6742;48.036;15.780;2023-11-21T12:58:38;7.60;99.90
13346;DHT22;6742;48.036;15.780;2023-11-21T13:01:07;7.60;99.90
13346;DHT22;6742;48.036;15.780;2023-11-21T13:03:37;7.60;99.90
13346;DHT22;6742;48.036;15.780;2023-11-21T13:06:07;7.60;99.90
13346;DHT22;6742;48.036;15.780;2023-11-21T13:08:34;7.60;99.90
13346;DHT22;6742;48.036;15.780;2023-11-21T13:11:05;7.60;99.90
13346;DHT22;6742;48.036;15.780;2023-11-21T13:13:32;7.60;99.90
13346;DHT22;6742;48.036;15.780;2023-11-21T13:16:00;7.60;99.90
13346;DHT22;6742;48.036;15.780;2023-11-21T13:18:29;7.60;99.90
13346;DHT22;6742;48.036;15.780;2023-11-21T13:20:58;7.60;99.90
13346;DHT22;6742;48.036;15.780;2023-11-21T13:23:27;7.60;99.90
13346;DHT22;6742;48.036;15.780;2023-11-21T13:25:55;7.60;99.90
13346;DHT22;6742;48.036;15.780;2023-11-21T13:28:22;7.70;99.90
13346;DHT22;6742;48.036;15.780;2023-11-21T13:30:50;7.70;99.90
13346;DHT22;6742;48.036;15.780;2023-11-21T13:33:18;7.70;99.90
13346;DHT22;6742;48.036;15.780;2023-11-21T13:35:48;7.60;99.90
13346;DHT22;6742;48.036;15.780;2023-11-21T13:38:18;7.60;99.90
13346;DHT22;6742;48.036;15.780;2023-11-21T13:40:51;7.60;99.90
13346;DHT22;6742;48.036;15.780;2023-11-21T13:43:21;7.60;99.90
13346;DHT22;6742;48.036;15.780;2023-11-21T13:45:50;7.60;99.90
13346;DHT22;6742;48.036;15.780;2023-11-21T13:48:24;7.60;99.90
13346;DHT22;6742;48.036;15.780;2023-11-21T13:50:57;7.60;99.90
13346;DHT22;6742;48.036;15.780;2023-11-21T13:53:27;7.50;99.90
13346;DHT22;6742;48.036;15.780;2023-11-21T13:55:55;7.50;99.90
13346;DHT22;6742;48.036;15.780;2023-11-21T13:58:23;7.50;99.90
13346;DHT22;6742;48.036;15.780;2023-11-21T14:01:00;7.50;99.90
13346;DHT22;6742;48.036;15.780;2023-11-21T14:03:31;7.60;99.90
13346;DHT22;6742;48.036;15.780;2023-11-21T14:06:05;7.50;99.90
13346;DHT22;6742;48.036;15.780;2023-11-21T14:08:39;7.60;99.90
13346;DHT22;6742;48.036;15.780;2023-11-21T14:11:08;7.60;99.90
13346;DHT22;6742;48.036;15.780;2023-11-21T14:13:36;7.60;99.90
13346;DHT22;6742;48.036;15.780;2023-11-21T14:16:05;7.60;99.90
13346;DHT22;6742;48.036;15.780;2023-11-21T14:18:35;7.60;99.90
13346;DHT22;6742;48.036;15.780;2023-11-21T14:21:09;7.60;99.90
13346;DHT22;6742;48.036;15.780;2023-11-21T14:23:36;7.60;99.90
13346;DHT22;6742;48.036;15.780;2023-11-21T14:26:04;7.50;99.90
13346;DHT22;6742;48.036;15.780;2023-11-21T14:28:33;7.40;99.90
13346;DHT22;6742;48.036;15.780;2023-11-21T14:31:00;7.40;99.90
13346;DHT22;6742;48.036;15.780;2023-11-21T14:33:27;7.40;99.90
13346;DHT22;6742;48.036;15.780;2023-11-21T14:35:54;7.40;99.90
13346;DHT22;6742;48.036;15.780;2023-11-21T14:38:23;7.50;99.90
13346;DHT22;6742;48.036;15.780;2023-11-21T14:40:50;7.50;99.90
13346;DHT22;6742;48.036;15.780;2023-11-21T14:43:16;7.50;99.90
13346;DHT22;6742;48.036;15.780;2023-11-21T14:45:46;7.60;99.90
13346;DHT22;6742;48.036;15.780;2023-11-21T14:48:14;7.60;99.90
13346;DHT22;6742;48.036;15.780;2023-11-21T14:50:42;7.60;99.90
13346;DHT22;6742;48.036;15.780;2023-11-21T14:53:16;7.60;99.90
13346;DHT22;6742;48.036;15.780;2023-11-21T14:55:52;7.60;99.90
13346;DHT22;6742;48.036;15.780;2023-11-21T14:58:23;7.60;99.90
13346;DHT22;6742;48.036;15.780;2023-11-21T15:00:57;7.60;99.90
13346;DHT22;6742;48.036;15.780;2023-11-21T15:03:25;7.60;99.90
13346;DHT22;6742;48.036;15.780;2023-11-21T15:06:09;7.60;99.90
13346;DHT22;6742;48.036;15.780;2023-11-21T15:08:54;7.50;99.90
13346;DHT22;6742;48.036;15.780;2023-11-21T15:11:47;7.50;99.90
13346;DHT22;6742;48.036;15.780;2023-11-21T15:14:13;7.40;99.90
13346;DHT22;6742;48.036;15.780;2023-11-21T15:16:47;7.40;99.90
13346;DHT22;6742;48.036;15.780;2023-11-21T15:19:18;7.40;99.90
13346;DHT22;6742;48.036;15.780;2023-11-21T15:21:51;7.50;99.90
13346;DHT22;6742;48.036;15.780;2023-11-21T15:24:18;7.50;99.90
13346;DHT22;6742;48.036;15.780;2023-11-21T15:26:44;7.50;99.90
13346;DHT22;6742;48.036;15.780;2023-11-21T15:29:11;7.50;99.90
13346;DHT22;6742;48.036;15.780;2023-11-21T15:31:40;7.50;99.90
13346;DHT22;6742;48.036;15.780;2023-11-21T15:34:12;7.50;99.90
13346;DHT22;6742;48.036;15.780;2023-11-21T15:36:39;7.40;99.90
13346;DHT22;6742;48.036;15.780;2023-11-21T15:39:06;7.50;99.90
13346;DHT22;6742;48.036;15.780;2023-11-21T15:41:35;7.50;99.90
13346;DHT22;6742;48.036;15.780;2023-11-21T15:44:04;7.50;99.90
13346;DHT22;6742;48.036;15.780;2023-11-21T15:46:34;7.40;99.90
13346;DHT22;6742;48.036;15.780;2023-11-21T15:49:01;7.40;99.90
13346;DHT22;6742;48.036;15.780;2023-11-21T15:51:38;7.30;99.90
13346;DHT22;6742;48.036;15.780;2023-11-21T15:54:05;7.30;99.90
13346;DHT22;6742;48.036;15.780;2023-11-21T15:56:33;7.30;99.90